Time;durP1;ratioP1;P1;durP2;ratioP2;P2;SDS_P1;SDS_P2;PMS_P1;PMS_P2;Temp;Humidity;BMP_temperature;BMP_pressure;BME280_temperature;BME280_humidity;BME280_pressure;Samples;Min_cycle;Max_cycle;Signal;HPM_P1;HPM_P2
2023/01/31 00:01:14;;;;;;;0.90;0.90;;;;;1.30;96794.00;;;;5036278;28;20203;-72
2023/01/31 00:03:42;;;;;;;1.43;1.33;;;;;1.30;96789.00;;;;5035721;28;20192;-72
2023/01/31 00:06:12;;;;;;;2.63;1.97;;;;;1.30;96791.00;;;;5035449;28;20310;-71
2023/01/31 00:08:40;;;;;;;0.97;0.97;;;;;1.40;96795.00;;;;5035387;28;20199;-72
2023/01/31 00:11:07;;;;;;;0.70;0.70;;;;;1.30;96795.00;;;;5017462;28;20647;-72
2023/01/31 00:13:37;;;;;;;1.03;1.03;;;;;1.30;96803.00;;;;5034681;28;20204;-72
2023/01/31 00:16:05;;;;;;;0.80;0.80;;;;;1.30;96801.00;;;;5035550;28;20261;-73
2023/01/31 00:18:32;;;;;;;1.00;1.00;;;;;1.20;96797.00;;;;5035284;28;20219;-73
2023/01/31 00:21:06;;;;;;;1.47;1.40;;;;;1.20;96801.00;;;;5035446;28;20212;-73
2023/01/31 00:23:33;;;;;;;1.03;1.03;;;;;1.10;96797.00;;;;5035117;28;20187;-73
2023/01/31 00:26:11;;;;;;;7.40;2.50;;;;;1.10;96787.00;;;;5035535;28;20214;-72
2023/01/31 00:28:41;;;;;;;1.67;1.57;;;;;1.10;96796.00;;;;5035646;28;20187;-72
2023/01/31 00:31:09;;;;;;;2.93;1.83;;;;;1.10;96796.00;;;;5035021;28;20613;-73
2023/01/31 00:33:37;;;;;;;1.80;1.73;;;;;1.00;96800.00;;;;5035302;28;20264;-73
2023/01/31 00:36:06;;;;;;;2.10;1.47;;;;;1.00;96804.00;;;;5034819;28;20262;-71
2023/01/31 00:38:34;;;;;;;1.07;1.07;;;;;1.00;96790.00;;;;5035327;28;20184;-72
2023/01/31 00:41:02;;;;;;;1.30;1.30;;;;;1.20;96792.00;;;;5034705;28;20200;-72
2023/01/31 00:43:30;;;;;;;0.70;0.70;;;;;1.10;96788.00;;;;5035337;28;20199;-72
2023/01/31 00:45:59;;;;;;;2.10;1.70;;;;;1.20;96790.00;;;;5035426;28;20691;-71
2023/01/31 00:48:27;;;;;;;1.10;1.07;;;;;1.00;96792.00;;;;5034604;28;20742;-71
2023/01/31 00:50:55;;;;;;;1.57;1.47;;;;;0.90;96780.00;;;;5034550;28;20260;-71
2023/01/31 00:53:23;;;;;;;1.17;1.17;;;;;0.70;96767.00;;;;5034749;28;20588;-71
2023/01/31 00:55:51;;;;;;;1.00;1.00;;;;;0.70;96773.00;;;;5034863;28;20239;-70
2023/01/31 00:58:19;;;;;;;0.80;0.80;;;;;0.80;96770.00;;;;5034457;28;20675;-71
2023/01/31 01:00:47;;;;;;;10.33;2.03;;;;;0.90;96766.00;;;;5034607;28;20709;-70
2023/01/31 01:03:17;;;;;;;1.13;1.13;;;;;0.90;96768.00;;;;5034863;28;20196;-71
2023/01/31 01:05:44;;;;;;;1.30;1.13;;;;;0.90;96769.00;;;;5016884;28;20658;-70
2023/01/31 01:08:12;;;;;;;1.90;1.17;;;;;0.90;96768.00;;;;5034441;28;20210;-72
2023/01/31 01:10:39;;;;;;;1.83;1.73;;;;;0.80;96767.00;;;;5034500;28;20202;-71
2023/01/31 01:13:07;;;;;;;1.40;1.40;;;;;0.80;96769.00;;;;5034242;28;20253;-71
2023/01/31 01:15:37;;;;;;;1.27;1.27;;;;;0.90;96770.00;;;;5034440;28;20192;-71
2023/01/31 01:18:05;;;;;;;0.77;0.77;;;;;0.90;96770.00;;;;5034136;28;20266;-72
2023/01/31 01:20:35;;;;;;;0.97;0.97;;;;;0.80;96777.00;;;;5016242;28;20333;-72
2023/01/31 01:23:04;;;;;;;0.90;0.90;;;;;0.90;96768.00;;;;5033978;28;20605;-72
2023/01/31 01:25:40;;;;;;;0.90;0.90;;;;;1.00;96764.00;;;;5034016;28;20191;-72
2023/01/31 01:28:08;;;;;;;1.03;1.03;;;;;1.00;96773.00;;;;5034322;28;20183;-72
2023/01/31 01:30:37;;;;;;;0.93;0.93;;;;;1.10;96763.00;;;;5033932;28;20185;-72
2023/01/31 01:33:04;;;;;;;1.20;1.20;;;;;1.10;96771.00;;;;5033888;28;20194;-72
2023/01/31 01:35:33;;;;;;;1.00;1.00;;;;;1.20;96766.00;;;;5034032;28;20535;-72
2023/01/31 01:38:00;;;;;;;3.03;2.10;;;;;1.30;96776.00;;;;5034484;28;20213;-72
2023/01/31 01:40:35;;;;;;;1.13;1.13;;;;;1.20;96763.00;;;;5033598;28;20264;-72
2023/01/31 01:43:02;;;;;;;3.77;1.97;;;;;1.00;96762.00;;;;5033909;28;20179;-71
2023/01/31 01:45:30;;;;;;;1.37;1.37;;;;;1.10;96763.00;;;;5033588;28;20203;-72
2023/01/31 01:48:00;;;;;;;0.93;0.93;;;;;1.10;96763.00;;;;5034065;28;20222;-72
2023/01/31 01:50:31;;;;;;;0.87;0.87;;;;;1.30;96766.00;;;;5034390;28;20188;-73
2023/01/31 01:53:05;;;;;;;0.90;0.90;;;;;1.00;96768.00;;;;5033368;28;20185;-72
2023/01/31 01:55:36;;;;;;;1.10;1.10;;;;;1.00;96756.00;;;;5033758;28;20183;-71
2023/01/31 01:58:08;;;;;;;1.03;1.03;;;;;1.00;96771.00;;;;5033977;28;20225;-71
2023/01/31 02:00:37;;;;;;;1.63;1.53;;;;;1.00;96780.00;;;;5033629;28;20242;-71
2023/01/31 02:03:07;;;;;;;1.83;1.43;;;;;1.10;96769.00;;;;5033309;28;20191;-71
2023/01/31 02:05:40;;;;;;;1.57;1.47;;;;;1.10;96765.00;;;;5033842;28;20284;-72
2023/01/31 02:08:09;;;;;;;1.37;1.37;;;;;1.10;96770.00;;;;5033634;28;20542;-72
2023/01/31 02:10:43;;;;;;;1.60;1.50;;;;;1.10;96775.00;;;;5033345;28;20274;-72
2023/01/31 02:13:11;;;;;;;1.43;1.33;;;;;1.10;96767.00;;;;5033233;28;20187;-73
2023/01/31 02:15:39;;;;;;;0.93;0.93;;;;;1.00;96767.00;;;;5033374;28;20566;-71
2023/01/31 02:18:07;;;;;;;1.70;1.57;;;;;1.00;96763.00;;;;5033704;28;20204;-72
2023/01/31 02:21:13;;;;;;;1.60;1.50;;;;;1.10;96765.00;;;;5033072;28;20224;-71
2023/01/31 02:24:24;;;;;;;4.17;2.80;;;;;1.10;96764.00;;;;5033706;28;20191;-71
2023/01/31 02:27:33;;;;;;;1.43;1.33;;;;;1.20;96766.00;;;;5033323;28;20695;-72
2023/01/31 02:30:31;;;;;;;1.53;1.47;;;;;1.40;96774.00;;;;5033365;28;20191;-71
2023/01/31 02:33:09;;;;;;;5.37;1.47;;;;;1.40;96773.00;;;;5033589;28;20191;-71
2023/01/31 02:35:48;;;;;;;1.50;1.47;;;;;1.50;96776.00;;;;5034798;28;20638;-70
2023/01/31 02:38:30;;;;;;;1.00;1.00;;;;;1.60;96786.00;;;;5037858;28;20228;-71
2023/01/31 02:41:05;;;;;;;0.80;0.80;;;;;1.40;96782.00;;;;5037047;28;20685;-71
2023/01/31 02:46:27;;;;;;;1.87;1.77;;;;;1.40;96786.00;;;;5036188;28;20580;-72
2023/01/31 02:49:02;;;;;;;2.03;1.47;;;;;1.30;96783.00;;;;5037438;28;20627;-72
2023/01/31 02:51:35;;;;;;;1.37;1.37;;;;;1.30;96790.00;;;;5037286;28;20191;-71
2023/01/31 02:54:08;;;;;;;1.07;1.07;;;;;1.40;96780.00;;;;5036856;28;20178;-71
2023/01/31 02:56:40;;;;;;;1.00;1.00;;;;;1.20;96787.00;;;;5036710;28;20280;-72
2023/01/31 02:59:12;;;;;;;1.90;1.40;;;;;1.40;96780.00;;;;5019145;28;20223;-72
2023/01/31 03:01:43;;;;;;;0.90;0.90;;;;;1.40;96788.00;;;;5019277;28;20202;-71
2023/01/31 03:04:13;;;;;;;0.90;0.90;;;;;1.30;96782.00;;;;5036687;28;20250;-72
2023/01/31 03:06:59;;;;;;;1.03;1.03;;;;;1.40;96786.00;;;;5036787;28;20698;-72
2023/01/31 03:09:38;;;;;;;2.10;1.40;;;;;1.30;96780.00;;;;5037594;28;20615;-72
2023/01/31 03:12:32;;;;;;;1.20;1.00;;;;;1.20;96791.00;;;;5036641;28;20241;-72
2023/01/31 03:15:12;;;;;;;0.80;0.80;;;;;1.40;96790.00;;;;5037211;28;20189;-72
2023/01/31 03:17:48;;;;;;;5.80;1.87;;;;;1.50;96794.00;;;;5018711;28;20319;-71
2023/01/31 03:20:22;;;;;;;5.63;2.57;;;;;1.50;96791.00;;;;5037012;28;20208;-71
2023/01/31 03:22:54;;;;;;;1.23;1.23;;;;;1.50;96779.00;;;;5036687;28;20179;-71
2023/01/31 03:25:24;;;;;;;2.17;1.83;;;;;1.50;96774.00;;;;5037083;28;20600;-71
2023/01/31 03:27:56;;;;;;;1.40;1.20;;;;;1.70;96775.00;;;;5018671;28;20224;-72
2023/01/31 03:30:30;;;;;;;1.27;1.27;;;;;1.50;96780.00;;;;5036264;28;20270;-71
2023/01/31 03:33:01;;;;;;;4.70;1.47;;;;;1.60;96775.00;;;;5036738;28;20199;-72
2023/01/31 03:35:33;;;;;;;1.00;1.00;;;;;1.60;96792.00;;;;5018413;28;20622;-72
2023/01/31 03:38:09;;;;;;;12.57;2.67;;;;;1.50;96792.00;;;;5035898;28;20231;-72
2023/01/31 03:40:42;;;;;;;0.90;0.90;;;;;1.60;96789.00;;;;5036423;28;20203;-71
2023/01/31 03:43:24;;;;;;;0.80;0.80;;;;;1.50;96790.00;;;;5036513;28;20199;-71
2023/01/31 03:45:57;;;;;;;1.27;1.17;;;;;1.50;96799.00;;;;5036398;28;20202;-72
2023/01/31 03:48:30;;;;;;;3.53;1.67;;;;;1.50;96802.00;;;;5036098;28;20184;-71
2023/01/31 03:51:00;;;;;;;2.10;1.67;;;;;1.40;96801.00;;;;5035820;28;20213;-71
2023/01/31 03:53:32;;;;;;;1.00;1.00;;;;;1.50;96796.00;;;;5035778;28;20187;-72
2023/01/31 03:56:04;;;;;;;1.10;1.10;;;;;1.50;96799.00;;;;5018004;28;20226;-72
2023/01/31 03:58:41;;;;;;;1.30;1.30;;;;;1.50;96810.00;;;;5036108;28;20654;-71
2023/01/31 04:01:11;;;;;;;2.00;1.63;;;;;1.50;96801.00;;;;5036132;28;20202;-72
2023/01/31 04:03:43;;;;;;;3.00;1.77;;;;;1.50;96807.00;;;;5035643;28;20252;-72
2023/01/31 04:06:13;;;;;;;1.40;1.00;;;;;1.40;96799.00;;;;5035722;28;20216;-71
2023/01/31 04:08:40;;;;;;;0.80;0.80;;;;;1.40;96805.00;;;;5035471;28;20199;-72
2023/01/31 04:11:12;;;;;;;1.13;1.13;;;;;1.30;96819.00;;;;5036140;28;20558;-72
2023/01/31 04:13:40;;;;;;;3.17;1.60;;;;;1.40;96820.00;;;;5017956;28;20192;-71
2023/01/31 04:16:08;;;;;;;1.23;1.17;;;;;1.40;96824.00;;;;5035338;28;20756;-70
2023/01/31 04:18:35;;;;;;;0.67;0.67;;;;;1.50;96817.00;;;;5035712;28;20290;-70
2023/01/31 04:21:02;;;;;;;1.00;1.00;;;;;1.40;96822.00;;;;5035616;28;20230;-71
2023/01/31 04:23:31;;;;;;;0.93;0.93;;;;;1.50;96820.00;;;;5035498;28;20600;-71
2023/01/31 04:25:59;;;;;;;4.30;1.57;;;;;1.50;96833.00;;;;5035330;28;20270;-70
2023/01/31 04:28:26;;;;;;;3.60;1.77;;;;;1.60;96812.00;;;;5035153;28;20203;-71
2023/01/31 04:30:54;;;;;;;1.10;1.10;;;;;1.60;96817.00;;;;5035018;28;20190;-71
2023/01/31 04:33:22;;;;;;;0.93;0.93;;;;;1.60;96812.00;;;;5035273;28;20202;-71
2023/01/31 04:35:51;;;;;;;1.80;1.70;;;;;1.50;96819.00;;;;5035067;28;20218;-70
2023/01/31 04:38:19;;;;;;;0.97;0.97;;;;;1.60;96819.00;;;;5035746;28;20188;-71
2023/01/31 04:40:48;;;;;;;1.63;1.53;;;;;1.50;96808.00;;;;5035997;28;20250;-71
2023/01/31 04:43:15;;;;;;;1.00;1.00;;;;;1.60;96810.00;;;;5017881;28;20718;-71
2023/01/31 04:45:43;;;;;;;0.70;0.70;;;;;1.60;96818.00;;;;5035139;28;20193;-70
2023/01/31 04:48:10;;;;;;;1.67;1.57;;;;;1.60;96806.00;;;;5035467;28;20203;-71
2023/01/31 04:50:38;;;;;;;0.90;0.90;;;;;1.50;96816.00;;;;5035460;28;20204;-72
2023/01/31 04:53:07;;;;;;;1.53;1.47;;;;;1.40;96811.00;;;;5035404;28;20250;-72
2023/01/31 04:55:35;;;;;;;1.83;1.73;;;;;1.40;96814.00;;;;5034827;28;20192;-71
2023/01/31 04:58:04;;;;;;;1.43;1.43;;;;;1.50;96815.00;;;;5016600;28;20203;-71
2023/01/31 05:00:31;;;;;;;1.57;1.33;;;;;1.50;96807.00;;;;5034675;28;20273;-71
2023/01/31 05:02:59;;;;;;;1.43;1.33;;;;;1.50;96804.00;;;;5034740;28;20678;-72
2023/01/31 05:05:27;;;;;;;0.93;0.93;;;;;1.40;96805.00;;;;5035168;28;20201;-72
2023/01/31 05:07:54;;;;;;;0.83;0.83;;;;;1.50;96800.00;;;;5035044;28;20262;-72
2023/01/31 05:10:22;;;;;;;18.43;2.00;;;;;1.40;96792.00;;;;5034844;28;20200;-72
2023/01/31 05:12:49;;;;;;;1.60;1.50;;;;;1.60;96801.00;;;;5035634;28;20200;-72
2023/01/31 05:15:19;;;;;;;1.87;1.60;;;;;1.80;96810.00;;;;5034782;28;20671;-72
2023/01/31 05:17:53;;;;;;;1.87;1.73;;;;;1.40;96801.00;;;;5034569;28;20251;-72
2023/01/31 05:20:20;;;;;;;1.10;1.10;;;;;1.40;96806.00;;;;5034759;28;20207;-72
2023/01/31 05:22:48;;;;;;;2.03;1.33;;;;;1.20;96799.00;;;;5034383;28;20257;-73
2023/01/31 05:25:16;;;;;;;1.00;1.00;;;;;1.10;96792.00;;;;5035284;28;20278;-72
2023/01/31 05:27:44;;;;;;;1.10;1.10;;;;;1.10;96798.00;;;;5034862;28;20291;-72
2023/01/31 05:30:12;;;;;;;0.97;0.97;;;;;1.00;96771.00;;;;5034696;28;20195;-73
2023/01/31 05:32:44;;;;;;;9.83;2.60;;;;;0.90;96799.00;;;;5034714;28;20249;-73
2023/01/31 05:35:12;;;;;;;1.37;1.27;;;;;0.90;96804.00;;;;5034203;28;20197;-72
2023/01/31 05:37:41;;;;;;;1.37;1.33;;;;;0.80;96807.00;;;;5034059;28;20219;-72
2023/01/31 05:40:10;;;;;;;1.67;1.57;;;;;0.70;96815.00;;;;5033732;28;20200;-73
2023/01/31 05:42:37;;;;;;;0.90;0.90;;;;;0.70;96812.00;;;;5034053;28;20192;-73
2023/01/31 05:45:06;;;;;;;1.73;1.63;;;;;0.70;96816.00;;;;5033902;28;20206;-72
2023/01/31 05:47:33;;;;;;;3.07;1.43;;;;;0.50;96827.00;;;;5033883;28;20232;-72
2023/01/31 05:50:02;;;;;;;1.50;1.40;;;;;0.40;96823.00;;;;5033762;28;20194;-73
2023/01/31 05:52:30;;;;;;;0.73;0.73;;;;;0.40;96832.00;;;;5034236;28;20201;-73
2023/01/31 05:54:57;;;;;;;1.20;1.10;;;;;0.40;96823.00;;;;5033678;28;20673;-73
2023/01/31 05:57:24;;;;;;;1.47;1.37;;;;;0.40;96817.00;;;;5034431;28;20626;-73
2023/01/31 05:59:52;;;;;;;10.60;1.80;;;;;0.40;96825.00;;;;5033898;28;20199;-73
2023/01/31 06:02:19;;;;;;;2.43;2.20;;;;;0.30;96818.00;;;;5033924;28;20219;-73
2023/01/31 06:04:48;;;;;;;1.67;1.57;;;;;0.20;96818.00;;;;5033598;28;20223;-73
2023/01/31 06:07:17;;;;;;;2.03;1.93;;;;;0.20;96817.00;;;;5033447;28;20226;-71
2023/01/31 06:09:44;;;;;;;0.70;0.70;;;;;0.00;96827.00;;;;5032859;28;20661;-72
2023/01/31 06:12:13;;;;;;;1.40;1.30;;;;;0.00;96815.00;;;;5034299;28;20585;-71
2023/01/31 06:14:41;;;;;;;1.30;1.30;;;;;0.20;96836.00;;;;5034403;28;20278;-72
2023/01/31 06:17:08;;;;;;;1.53;1.53;;;;;0.00;96826.00;;;;5033475;28;20225;-73
2023/01/31 06:19:36;;;;;;;1.00;1.00;;;;;0.00;96816.00;;;;5016319;28;20654;-73
2023/01/31 06:22:03;;;;;;;2.63;2.40;;;;;0.10;96832.00;;;;5033696;28;20219;-73
2023/01/31 06:24:32;;;;;;;1.13;1.10;;;;;-0.10;96836.00;;;;5015870;28;20197;-74
2023/01/31 06:26:59;;;;;;;0.80;0.80;;;;;-0.10;96831.00;;;;5033150;28;20224;-73
2023/01/31 06:29:27;;;;;;;1.03;1.03;;;;;0.10;96833.00;;;;5033298;28;20621;-72
2023/01/31 06:31:54;;;;;;;0.90;0.90;;;;;-0.10;96833.00;;;;5033148;28;20203;-73
2023/01/31 06:34:22;;;;;;;1.00;1.00;;;;;-0.10;96833.00;;;;5033329;28;20726;-73
2023/01/31 06:36:49;;;;;;;1.33;1.27;;;;;0.00;96840.00;;;;5015058;28;20237;-73
2023/01/31 06:39:16;;;;;;;2.67;1.77;;;;;-0.10;96851.00;;;;5033078;28;20530;-72
2023/01/31 06:41:45;;;;;;;0.90;0.90;;;;;-0.20;96773.00;;;;5032828;28;20217;-72
2023/01/31 06:44:12;;;;;;;1.07;1.07;;;;;-0.30;96847.00;;;;5033012;28;20668;-71
2023/01/31 06:46:40;;;;;;;1.33;1.33;;;;;-0.30;96853.00;;;;5032801;28;20271;-71
2023/01/31 06:49:07;;;;;;;1.77;1.67;;;;;-0.30;96844.00;;;;5032818;28;20244;-72
2023/01/31 06:51:35;;;;;;;5.43;2.63;;;;;-0.30;96857.00;;;;5033054;28;20691;-72
2023/01/31 06:54:02;;;;;;;1.87;1.73;;;;;-0.30;96849.00;;;;5033248;28;20198;-72
2023/01/31 06:56:30;;;;;;;1.23;1.23;;;;;-0.20;96840.00;;;;5032889;28;20220;-72
2023/01/31 06:58:59;;;;;;;1.80;1.70;;;;;-0.40;96845.00;;;;5032731;28;20194;-72
2023/01/31 07:01:26;;;;;;;0.93;0.93;;;;;-0.40;96838.00;;;;5032890;28;20214;-71
2023/01/31 07:03:53;;;;;;;4.53;1.77;;;;;-0.40;96834.00;;;;5032627;28;20201;-72
2023/01/31 07:06:21;;;;;;;2.60;1.97;;;;;-0.30;96834.00;;;;5014790;28;20588;-71
2023/01/31 07:08:49;;;;;;;1.20;1.17;;;;;-0.20;96837.00;;;;5032516;28;20190;-72
2023/01/31 07:11:16;;;;;;;3.23;1.97;;;;;-0.20;96834.00;;;;5032603;28;20194;-72
2023/01/31 07:13:46;;;;;;;1.87;1.77;;;;;-0.10;96829.00;;;;5032568;28;20256;-71
2023/01/31 07:16:16;;;;;;;0.73;0.73;;;;;0.00;96835.00;;;;5032983;28;20222;-71
2023/01/31 07:18:43;;;;;;;0.80;0.80;;;;;0.00;96850.00;;;;5032664;28;20193;-72
2023/01/31 07:21:10;;;;;;;3.50;3.20;;;;;-0.20;96851.00;;;;5032971;28;20218;-72
2023/01/31 07:23:38;;;;;;;0.87;0.87;;;;;0.00;96851.00;;;;5036319;28;20207;-72
2023/01/31 07:26:06;;;;;;;7.83;2.50;;;;;-0.10;96852.00;;;;5036074;28;20213;-71
2023/01/31 07:28:33;;;;;;;0.93;0.93;;;;;-0.10;96844.00;;;;5036395;28;20205;-72
2023/01/31 07:31:09;;;;;;;7.10;1.57;;;;;0.00;96846.00;;;;5036067;28;20189;-71
2023/01/31 07:33:39;;;;;;;1.57;1.47;;;;;0.10;96848.00;;;;5035969;28;20201;-71
2023/01/31 07:36:08;;;;;;;1.10;1.10;;;;;0.10;96844.00;;;;5036212;28;20216;-71
2023/01/31 07:38:35;;;;;;;1.00;1.00;;;;;0.20;96848.00;;;;5036269;28;20187;-72
2023/01/31 07:41:04;;;;;;;3.33;2.50;;;;;0.10;96862.00;;;;5036206;28;20279;-72
2023/01/31 07:43:32;;;;;;;1.03;1.03;;;;;0.10;96849.00;;;;5035906;28;20195;-72
2023/01/31 07:46:00;;;;;;;6.10;2.40;;;;;0.30;96848.00;;;;5036120;28;20700;-71
2023/01/31 07:48:28;;;;;;;1.03;1.03;;;;;0.50;96845.00;;;;5036044;28;20256;-72
2023/01/31 07:51:01;;;;;;;2.20;1.67;;;;;0.70;96842.00;;;;5017998;28;20206;-72
2023/01/31 07:53:31;;;;;;;0.80;0.80;;;;;0.60;96838.00;;;;5036030;28;20618;-72
2023/01/31 07:56:06;;;;;;;27.93;1.53;;;;;0.70;96850.00;;;;5036348;28;20619;-71
2023/01/31 07:58:35;;;;;;;1.80;1.70;;;;;0.90;96842.00;;;;5031476;28;20307;-65
2023/01/31 08:03:48;;;;;;;5.37;2.03;;;;;0.80;96849.00;;;;5035501;28;20241;-68
2023/01/31 08:06:17;;;;;;;2.07;1.13;;;;;0.90;96848.00;;;;5042081;28;20230;-71
2023/01/31 08:08:45;;;;;;;0.90;0.90;;;;;1.00;96855.00;;;;5034193;28;20203;-70
2023/01/31 08:11:13;;;;;;;1.17;1.17;;;;;0.90;96854.00;;;;5033422;28;20246;-71
2023/01/31 08:13:40;;;;;;;0.70;0.70;;;;;1.00;96855.00;;;;5033526;28;20280;-71
2023/01/31 08:16:09;;;;;;;0.83;0.83;;;;;0.90;96849.00;;;;5052475;28;20692;-70
2023/01/31 08:18:37;;;;;;;1.53;1.43;;;;;1.00;96854.00;;;;5048848;28;20678;-70
2023/01/31 08:21:05;;;;;;;0.83;0.83;;;;;1.00;96846.00;;;;5033817;28;20375;-71
2023/01/31 08:23:36;;;;;;;1.13;1.13;;;;;1.20;96847.00;;;;5053108;28;20198;-71
2023/01/31 08:26:06;;;;;;;1.03;1.03;;;;;1.10;96841.00;;;;5029420;28;20226;-70
2023/01/31 08:28:34;;;;;;;1.33;1.33;;;;;1.10;96848.00;;;;5052301;28;20197;-70
2023/01/31 08:31:01;;;;;;;1.10;1.10;;;;;1.00;96844.00;;;;5048921;28;20215;-71
2023/01/31 08:33:30;;;;;;;1.23;1.13;;;;;1.20;96850.00;;;;5047906;28;20229;-70
2023/01/31 08:35:57;;;;;;;2.10;2.00;;;;;1.30;96843.00;;;;5052752;28;21320;-70
2023/01/31 08:38:25;;;;;;;0.90;0.90;;;;;1.30;96846.00;;;;5052952;28;20195;-70
2023/01/31 08:40:53;;;;;;;1.27;1.27;;;;;1.50;96841.00;;;;5013500;28;20298;-71
2023/01/31 08:43:21;;;;;;;1.70;1.60;;;;;1.70;96830.00;;;;5032697;28;20205;-71
2023/01/31 08:45:48;;;;;;;1.80;1.47;;;;;1.90;96830.00;;;;5032362;28;20199;-70
2023/01/31 08:48:16;;;;;;;1.23;1.23;;;;;2.00;96826.00;;;;5033089;28;20581;-71
2023/01/31 08:50:43;;;;;;;0.83;0.83;;;;;2.00;96832.00;;;;5032745;28;20225;-70
2023/01/31 08:53:10;;;;;;;0.97;0.97;;;;;1.80;96827.00;;;;5032823;28;20202;-70
2023/01/31 08:55:38;;;;;;;1.47;1.40;;;;;1.70;96816.00;;;;5039250;28;20206;-70
2023/01/31 08:58:07;;;;;;;0.80;0.80;;;;;1.70;96818.00;;;;5047594;28;20211;-70
2023/01/31 09:00:34;;;;;;;1.53;1.47;;;;;1.40;96818.00;;;;5052447;28;20202;-70
2023/01/31 09:03:01;;;;;;;3.40;1.40;;;;;1.60;96825.00;;;;5052287;28;20686;-70
2023/01/31 09:05:31;;;;;;;1.10;1.10;;;;;1.60;96824.00;;;;5052778;28;20200;-70
2023/01/31 09:07:59;;;;;;;3.30;1.73;;;;;1.60;96825.00;;;;5051888;28;20226;-71
2023/01/31 09:10:27;;;;;;;0.90;0.90;;;;;1.80;96826.00;;;;5052303;28;20263;-71
2023/01/31 09:12:54;;;;;;;1.53;1.10;;;;;1.90;96819.00;;;;5047754;28;20189;-71
2023/01/31 09:15:23;;;;;;;1.90;1.80;;;;;2.00;96816.00;;;;5042357;28;20256;-70
2023/01/31 09:17:50;;;;;;;1.10;1.10;;;;;2.30;96827.00;;;;5032593;28;20224;-70
2023/01/31 09:20:18;;;;;;;1.53;1.40;;;;;2.00;96824.00;;;;5032133;28;20200;-71
2023/01/31 09:22:45;;;;;;;0.90;0.90;;;;;2.00;96815.00;;;;5032133;28;20219;-70
2023/01/31 09:25:13;;;;;;;3.63;2.77;;;;;1.90;96822.00;;;;5034935;28;20200;-71
2023/01/31 09:27:41;;;;;;;1.60;1.50;;;;;1.90;96818.00;;;;5033947;28;20255;-71
2023/01/31 09:30:10;;;;;;;0.97;0.97;;;;;2.10;96821.00;;;;5051888;28;20276;-71
2023/01/31 09:32:40;;;;;;;1.43;1.33;;;;;2.20;96823.00;;;;5049094;28;20207;-71
2023/01/31 09:35:08;;;;;;;0.70;0.70;;;;;2.60;96811.00;;;;5031928;28;20203;-71
2023/01/31 09:37:36;;;;;;;0.70;0.70;;;;;2.80;96815.00;;;;5032252;28;20224;-71
2023/01/31 09:40:04;;;;;;;1.67;1.57;;;;;2.30;96805.00;;;;5030981;28;20210;-71
2023/01/31 09:42:35;;;;;;;0.60;0.60;;;;;2.60;96803.00;;;;5031899;28;20659;-71
2023/01/31 09:45:07;;;;;;;0.90;0.90;;;;;2.30;96798.00;;;;5032068;28;20202;-71
2023/01/31 09:47:41;;;;;;;0.97;0.97;;;;;2.30;96809.00;;;;5040973;28;20273;-70
2023/01/31 09:50:18;;;;;;;0.60;0.60;;;;;2.30;96805.00;;;;5052286;28;20609;-71
2023/01/31 09:52:46;;;;;;;1.07;0.97;;;;;2.10;96807.00;;;;5051602;28;20267;-71
2023/01/31 09:55:17;;;;;;;1.03;1.03;;;;;2.10;96800.00;;;;5051310;28;20612;-71
2023/01/31 09:57:54;;;;;;;7.50;2.20;;;;;2.30;96813.00;;;;5051486;28;20219;-70
2023/01/31 10:00:27;;;;;;;8.43;1.73;;;;;2.20;96821.00;;;;5051873;28;20192;-71
2023/01/31 10:03:27;;;;;;;0.77;0.77;;;;;2.30;96808.00;;;;5052235;28;20211;-71
2023/01/31 10:06:00;;;;;;;1.30;1.30;;;;;2.10;96811.00;;;;5051607;28;20203;-71
2023/01/31 10:08:40;;;;;;;1.63;1.53;;;;;2.20;96812.00;;;;5051992;28;20209;-71
2023/01/31 10:11:13;;;;;;;0.83;0.83;;;;;2.40;96828.00;;;;5051774;28;20268;-71
2023/01/31 10:13:48;;;;;;;0.80;0.80;;;;;2.40;96817.00;;;;5050202;28;20207;-71
2023/01/31 10:16:23;;;;;;;5.10;1.13;;;;;2.50;96820.00;;;;5051105;28;20220;-71
2023/01/31 10:18:56;;;;;;;1.53;1.43;;;;;2.60;96827.00;;;;5051385;28;20190;-71
2023/01/31 10:21:30;;;;;;;0.73;0.73;;;;;2.90;96828.00;;;;5051436;28;20199;-71
2023/01/31 10:24:02;;;;;;;0.73;0.73;;;;;2.90;96822.00;;;;5051420;28;20196;-71
2023/01/31 10:26:31;;;;;;;1.40;1.33;;;;;3.40;96828.00;;;;5051311;28;20216;-70
2023/01/31 10:29:02;;;;;;;1.47;1.47;;;;;3.60;96815.00;;;;5051016;28;20670;-71
2023/01/31 10:31:33;;;;;;;1.13;1.13;;;;;3.80;96824.00;;;;5051418;28;20267;-71
2023/01/31 10:34:07;;;;;;;1.30;1.20;;;;;3.60;96823.00;;;;5051044;28;20196;-70
2023/01/31 10:36:38;;;;;;;0.60;0.60;;;;;3.40;96825.00;;;;5051223;28;20224;-70
2023/01/31 10:39:12;;;;;;;0.67;0.67;;;;;3.20;96811.00;;;;5050446;28;20774;-70
2023/01/31 10:41:47;;;;;;;1.13;1.10;;;;;3.80;96805.00;;;;5051080;28;20199;-71
2023/01/31 10:44:23;;;;;;;0.70;0.70;;;;;3.70;96806.00;;;;5050529;28;20545;-72
2023/01/31 10:46:55;;;;;;;0.67;0.67;;;;;4.60;96803.00;;;;5051124;28;20223;-70
2023/01/31 10:49:26;;;;;;;1.30;1.20;;;;;4.50;96797.00;;;;5050464;28;20189;-70
2023/01/31 10:52:15;;;;;;;3.50;1.03;;;;;4.40;96807.00;;;;5051229;28;20196;-71
2023/01/31 10:54:53;;;;;;;0.80;0.80;;;;;4.30;96817.00;;;;5026744;28;20192;-71
2023/01/31 10:57:21;;;;;;;0.80;0.80;;;;;4.20;96810.00;;;;5033643;28;20212;-71
2023/01/31 10:59:50;;;;;;;0.60;0.60;;;;;4.20;96819.00;;;;5034379;28;20203;-70
2023/01/31 11:02:21;;;;;;;0.60;0.60;;;;;4.20;96806.00;;;;5034585;28;20217;-74
2023/01/31 11:04:51;;;;;;;0.83;0.83;;;;;4.20;96815.00;;;;5034389;28;20201;-73
2023/01/31 11:07:20;;;;;;;1.20;1.10;;;;;3.80;96815.00;;;;5035087;28;20227;-73
2023/01/31 11:09:50;;;;;;;1.17;1.10;;;;;3.70;96812.00;;;;5034338;28;20201;-74
2023/01/31 11:12:18;;;;;;;0.87;0.87;;;;;3.80;96825.00;;;;5035527;28;20279;-72
2023/01/31 11:14:46;;;;;;;0.90;0.90;;;;;4.20;96789.00;;;;5037837;28;20192;-66
2023/01/31 11:17:20;;;;;;;0.87;0.87;;;;;4.60;96801.00;;;;5018413;28;20227;-62
2023/01/31 11:19:51;;;;;;;0.70;0.70;;;;;3.70;96790.00;;;;5049796;28;20215;-74
2023/01/31 11:22:24;;;;;;;0.70;0.70;;;;;4.10;96800.00;;;;5045579;28;20220;-69
2023/01/31 11:24:52;;;;;;;0.80;0.80;;;;;4.20;96783.00;;;;5041524;28;20197;-71
2023/01/31 11:27:27;;;;;;;1.50;1.37;;;;;4.10;96788.00;;;;5036528;28;20226;-71
2023/01/31 11:29:57;;;;;;;3.10;2.13;;;;;3.80;96780.00;;;;5051322;28;20196;-71
2023/01/31 11:32:26;;;;;;;0.80;0.80;;;;;3.40;96792.00;;;;5035040;28;20227;-73
2023/01/31 11:35:02;;;;;;;0.60;0.60;;;;;3.50;96769.00;;;;5051591;28;20192;-71
2023/01/31 11:37:30;;;;;;;0.73;0.73;;;;;3.60;96754.00;;;;5025331;28;20260;-72
2023/01/31 11:40:00;;;;;;;0.80;0.80;;;;;3.00;96759.00;;;;5033667;28;20197;-71
2023/01/31 11:42:28;;;;;;;1.10;1.00;;;;;2.80;96761.00;;;;5034682;28;20248;-71
2023/01/31 11:44:57;;;;;;;1.00;1.00;;;;;2.60;96753.00;;;;5033915;28;20200;-71
2023/01/31 11:47:33;;;;;;;1.90;1.53;;;;;2.70;96750.00;;;;5052425;28;20239;-71
2023/01/31 11:50:06;;;;;;;0.70;0.70;;;;;2.60;96755.00;;;;5053800;28;20191;-72
2023/01/31 11:52:34;;;;;;;1.10;1.10;;;;;2.60;96748.00;;;;5053031;28;20647;-73
2023/01/31 11:55:06;;;;;;;1.20;1.20;;;;;2.90;96754.00;;;;5035130;28;20204;-74
2023/01/31 11:57:36;;;;;;;1.00;1.00;;;;;2.80;96760.00;;;;5033669;28;20216;-70
2023/01/31 12:00:18;;;;;;;0.83;0.83;;;;;2.70;96763.00;;;;5034197;28;20189;-72
2023/01/31 12:02:46;;;;;;;0.87;0.87;;;;;3.00;96771.00;;;;5033586;28;20208;-72
2023/01/31 12:05:18;;;;;;;1.70;1.60;;;;;3.00;96770.00;;;;5034058;28;20201;-71
2023/01/31 12:07:49;;;;;;;1.30;1.30;;;;;3.00;96755.00;;;;5032161;28;20220;-72
2023/01/31 12:10:32;;;;;;;1.47;1.37;;;;;3.00;96761.00;;;;5033730;28;20519;-71
2023/01/31 12:13:01;;;;;;;0.80;0.80;;;;;2.90;96762.00;;;;5032499;28;20208;-71
2023/01/31 12:15:30;;;;;;;0.70;0.70;;;;;2.60;96765.00;;;;5032635;28;20268;-71
2023/01/31 12:18:01;;;;;;;0.60;0.60;;;;;2.60;96731.00;;;;5033201;28;20635;-70
2023/01/31 12:20:44;;;;;;;0.97;0.97;;;;;2.20;96743.00;;;;5037437;28;20680;-72
2023/01/31 12:23:26;;;;;;;1.17;1.17;;;;;2.40;96711.00;;;;5053099;28;20264;-72
2023/01/31 12:26:08;;;;;;;0.90;0.90;;;;;2.60;96704.00;;;;5053056;28;20199;-70
2023/01/31 12:28:57;;;;;;;1.20;1.10;;;;;2.50;96710.00;;;;5053145;28;20258;-70
2023/01/31 12:31:48;;;;;;;7.53;1.00;;;;;2.40;96699.00;;;;5053076;28;20274;-72
2023/01/31 12:34:30;;;;;;;0.80;0.80;;;;;2.40;96701.00;;;;5053277;28;20191;-72
2023/01/31 12:37:15;;;;;;;0.90;0.90;;;;;2.20;96718.00;;;;5052725;28;20238;-71
2023/01/31 12:39:58;;;;;;;0.90;0.90;;;;;2.20;96719.00;;;;5052772;28;20250;-71
2023/01/31 12:42:45;;;;;;;1.57;1.43;;;;;2.30;96708.00;;;;5052708;28;20202;-71
2023/01/31 12:45:38;;;;;;;2.20;2.10;;;;;2.40;96694.00;;;;5052038;28;20188;-72
2023/01/31 12:48:33;;;;;;;0.70;0.70;;;;;2.10;96700.00;;;;5052183;28;20241;-72
2023/01/31 12:51:14;;;;;;;0.90;0.90;;;;;2.30;96699.00;;;;5052501;28;20210;-72